Time;durP1;ratioP1;P1;durP2;ratioP2;P2;SDS_P1;SDS_P2;PMS_P1;PMS_P2;Temp;Humidity;BMP_temperature;BMP_pressure;BME280_temperature;BME280_humidity;BME280_pressure;Samples;Min_cycle;Max_cycle;Signal;HPM_P1;HPM_P2
2022/12/30 00:01:08;;;;;;;5.95;4.35;;;9.80;99.90;;;;;;5053861;28;20586;-79
2022/12/30 00:03:35;;;;;;;7.03;4.78;;;9.80;99.90;;;;;;5054040;28;20112;-79
2022/12/30 00:06:01;;;;;;;5.20;4.65;;;9.80;99.90;;;;;;5053712;28;20079;-79
2022/12/30 00:11:22;;;;;;;6.25;4.70;;;9.80;99.90;;;;;;5053545;28;20409;-79
2022/12/30 00:34:24;;;;;;;6.80;4.80;;;9.80;99.90;;;;;;5053461;28;20044;-79
2022/12/30 00:36:50;;;;;;;5.10;4.15;;;9.70;99.90;;;;;;5053161;28;20025;-79
2022/12/30 00:39:16;;;;;;;6.95;4.85;;;9.70;99.90;;;;;;5053018;28;20029;-79
2022/12/30 00:44:26;;;;;;;6.80;5.07;;;9.70;99.90;;;;;;5053113;28;20029;-79
2022/12/30 00:46:52;;;;;;;8.18;5.85;;;9.70;99.90;;;;;;5052770;28;20033;-79
2022/12/30 00:57:31;;;;;;;8.98;5.95;;;9.80;99.90;;;;;;5052743;28;20024;-79
2022/12/30 00:59:57;;;;;;;10.77;7.50;;;9.70;99.90;;;;;;5053097;28;20029;-79
2022/12/30 01:02:23;;;;;;;10.20;7.47;;;9.70;99.90;;;;;;5052662;28;20406;-79
2022/12/30 01:04:48;;;;;;;11.02;8.13;;;9.80;99.90;;;;;;5052525;28;20025;-79
2022/12/30 01:07:14;;;;;;;12.60;9.13;;;9.90;99.90;;;;;;5052432;28;20025;-79
2022/12/30 01:09:40;;;;;;;13.07;8.65;;;9.90;99.90;;;;;;5052834;28;20031;-79
2022/12/30 01:12:09;;;;;;;11.27;8.45;;;9.90;99.90;;;;;;5052068;28;20020;-79
2022/12/30 01:14:36;;;;;;;10.80;7.93;;;9.90;99.90;;;;;;5052572;28;20052;-79
2022/12/30 01:17:02;;;;;;;11.90;7.82;;;9.90;99.90;;;;;;5052313;28;20021;-79
2022/12/30 01:19:28;;;;;;;11.98;9.07;;;9.90;99.90;;;;;;5050921;28;20113;-79
2022/12/30 01:21:53;;;;;;;11.35;8.27;;;9.90;99.90;;;;;;5052131;28;20108;-79
2022/12/30 01:24:19;;;;;;;12.15;8.70;;;9.90;99.90;;;;;;5051142;28;20025;-79
2022/12/30 01:26:44;;;;;;;10.95;7.40;;;9.80;99.90;;;;;;5052452;28;20032;-79
2022/12/30 01:29:10;;;;;;;11.43;7.70;;;9.70;99.90;;;;;;5052178;28;20045;-79
2022/12/30 01:31:36;;;;;;;11.07;7.75;;;9.60;99.90;;;;;;5052225;28;20025;-79
2022/12/30 01:34:01;;;;;;;11.75;8.20;;;9.60;99.90;;;;;;5052083;28;20123;-79
2022/12/30 01:36:27;;;;;;;12.02;8.90;;;9.60;99.90;;;;;;5051798;28;20025;-79
2022/12/30 01:38:53;;;;;;;12.23;9.15;;;9.60;99.90;;;;;;5052175;28;20021;-79
2022/12/30 01:41:18;;;;;;;12.63;8.95;;;9.60;99.90;;;;;;5052157;28;20595;-79
2022/12/30 01:43:49;;;;;;;13.65;9.63;;;9.50;99.90;;;;;;5052047;28;20509;-79
2022/12/30 01:46:23;;;;;;;13.30;9.35;;;9.50;99.90;;;;;;5052224;28;20104;-79
2022/12/30 01:48:53;;;;;;;12.85;9.05;;;9.50;99.90;;;;;;5052480;28;20021;-79
2022/12/30 01:51:26;;;;;;;15.18;9.45;;;9.60;99.90;;;;;;5051433;28;20029;-79
2022/12/30 01:53:54;;;;;;;13.70;9.82;;;9.70;99.90;;;;;;5050766;28;20107;-79
2022/12/30 01:56:35;;;;;;;15.25;10.27;;;9.50;99.90;;;;;;5051788;28;20021;-79
2022/12/30 01:59:18;;;;;;;13.40;9.52;;;9.40;99.90;;;;;;5052118;28;20018;-79
2022/12/30 02:01:44;;;;;;;18.90;10.65;;;9.50;99.90;;;;;;5052012;28;20482;-79
2022/12/30 02:04:15;;;;;;;12.98;9.55;;;9.40;99.90;;;;;;5051975;28;20029;-80
2022/12/30 02:06:43;;;;;;;11.50;9.00;;;9.50;99.90;;;;;;5051578;28;20053;-79
2022/12/30 02:09:09;;;;;;;15.50;10.13;;;9.50;99.90;;;;;;5052024;28;20624;-79
2022/12/30 02:11:35;;;;;;;16.67;10.63;;;9.60;99.90;;;;;;5051713;28;20043;-79
2022/12/30 02:14:02;;;;;;;12.50;9.65;;;9.50;99.90;;;;;;5051720;28;20017;-79
2022/12/30 02:16:46;;;;;;;12.52;9.60;;;9.40;99.90;;;;;;5051621;28;20021;-79
2022/12/30 02:19:18;;;;;;;12.63;9.23;;;9.50;99.90;;;;;;5050367;28;20021;-79
2022/12/30 02:22:07;;;;;;;12.07;8.38;;;9.50;99.90;;;;;;5051356;28;20032;-79
2022/12/30 02:25:08;;;;;;;12.45;9.02;;;9.50;99.90;;;;;;5050518;28;20573;-79
2022/12/30 02:27:57;;;;;;;12.48;9.10;;;9.50;99.90;;;;;;5009329;28;20085;-79
2022/12/30 02:30:35;;;;;;;14.10;10.45;;;9.50;99.90;;;;;;5009818;28;20030;-79
2022/12/30 02:33:21;;;;;;;14.70;9.63;;;9.50;99.90;;;;;;4992944;28;20113;-79
2022/12/30 02:36:06;;;;;;;16.05;9.82;;;9.50;99.90;;;;;;5009606;28;20029;-79
2022/12/30 02:38:49;;;;;;;12.15;8.82;;;9.50;99.90;;;;;;4992709;28;20034;-79
2022/12/30 02:44:54;;;;;;;15.38;10.25;;;9.50;99.90;;;;;;5011940;28;20080;-79
2022/12/30 02:47:19;;;;;;;15.98;10.55;;;9.50;99.90;;;;;;4994687;28;20133;-79
2022/12/30 02:52:14;;;;;;;11.05;8.90;;;9.40;99.90;;;;;;4996427;28;20117;-79
2022/12/30 02:52:39;;;;;;;13.40;9.18;;;9.50;99.90;;;;;;5012612;28;20028;-79
2022/12/30 02:55:06;;;;;;;12.25;9.18;;;9.50;99.90;;;;;;5013251;28;20033;-79
2022/12/30 02:57:34;;;;;;;11.50;9.00;;;9.50;99.90;;;;;;5012828;28;20038;-79
2022/12/30 03:06:18;;;;;;;10.98;7.82;;;9.60;99.90;;;;;;5054892;28;20568;-79
2022/12/30 03:09:03;;;;;;;9.95;7.70;;;9.50;99.90;;;;;;5042691;28;20587;-79
2022/12/30 03:11:37;;;;;;;10.68;8.15;;;9.60;99.90;;;;;;5054955;28;20029;-79
2022/12/30 03:14:21;;;;;;;10.68;8.02;;;9.50;99.90;;;;;;5054798;28;20017;-80
2022/12/30 03:16:54;;;;;;;10.55;7.65;;;9.40;99.90;;;;;;5053283;28;20021;-79
2022/12/30 03:19:23;;;;;;;10.60;8.40;;;9.40;99.90;;;;;;5054986;28;20024;-80
2022/12/30 03:21:52;;;;;;;10.35;7.80;;;9.50;99.90;;;;;;5054710;28;20541;-79
2022/12/30 03:27:09;;;;;;;9.43;7.60;;;9.50;99.90;;;;;;5054848;28;20036;-79
2022/12/30 03:29:42;;;;;;;9.75;7.68;;;9.50;99.90;;;;;;5054502;28;20052;-79
2022/12/30 03:32:11;;;;;;;9.20;6.40;;;9.60;99.90;;;;;;5054467;28;20018;-80
2022/12/30 03:34:38;;;;;;;8.77;6.70;;;9.60;99.90;;;;;;5054596;28;20029;-79
2022/12/30 03:37:18;;;;;;;8.35;6.40;;;9.60;99.90;;;;;;5054018;28;20017;-79
2022/12/30 03:40:31;;;;;;;9.60;7.22;;;9.70;99.90;;;;;;5054426;28;20036;-79
2022/12/30 03:42:58;;;;;;;8.48;6.65;;;9.70;99.90;;;;;;5043762;28;20072;-79
2022/12/30 03:45:25;;;;;;;6.38;5.53;;;9.70;99.90;;;;;;5054185;28;20048;-79
2022/12/30 03:47:50;;;;;;;7.03;5.57;;;9.60;99.90;;;;;;5069082;28;20025;-79
2022/12/30 03:50:16;;;;;;;7.20;5.85;;;9.50;99.90;;;;;;5052709;28;20029;-79
2022/12/30 03:52:42;;;;;;;6.65;5.10;;;9.60;99.90;;;;;;5054112;28;20025;-79
2022/12/30 03:55:08;;;;;;;7.90;5.60;;;9.60;99.90;;;;;;5053527;28;20029;-79
2022/12/30 03:57:33;;;;;;;7.20;5.30;;;9.60;99.90;;;;;;5054022;28;20043;-79
2022/12/30 03:59:59;;;;;;;7.43;5.13;;;9.60;99.90;;;;;;5053953;28;20402;-79
2022/12/30 04:02:25;;;;;;;6.43;4.78;;;9.60;99.90;;;;;;5054060;28;20029;-79
2022/12/30 04:04:51;;;;;;;7.40;4.93;;;9.60;99.90;;;;;;5053967;28;20036;-79
2022/12/30 04:07:17;;;;;;;7.43;5.13;;;9.60;99.90;;;;;;5052416;28;20029;-79
2022/12/30 04:09:43;;;;;;;6.57;4.80;;;9.70;99.90;;;;;;5053623;28;20532;-79
2022/12/30 04:12:09;;;;;;;6.35;4.63;;;9.70;99.90;;;;;;5053734;28;20025;-79
2022/12/30 04:14:35;;;;;;;5.22;4.45;;;9.70;99.90;;;;;;5053591;28;20068;-79
2022/12/30 04:17:00;;;;;;;6.22;4.72;;;9.60;99.90;;;;;;5053782;28;20487;-79
2022/12/30 04:19:26;;;;;;;5.38;4.22;;;9.60;99.90;;;;;;5053562;28;20498;-79
2022/12/30 04:21:52;;;;;;;6.35;4.20;;;9.60;99.90;;;;;;5052304;28;20112;-79
2022/12/30 04:24:17;;;;;;;6.18;4.45;;;9.70;99.90;;;;;;5053398;28;20044;-79
2022/12/30 04:26:43;;;;;;;5.13;4.55;;;9.60;99.90;;;;;;5053767;28;20036;-79
2022/12/30 04:29:09;;;;;;;5.07;4.20;;;9.60;99.90;;;;;;5052880;28;20048;-79
2022/12/30 04:31:34;;;;;;;4.30;3.80;;;9.60;99.90;;;;;;5053416;28;20506;-79
2022/12/30 04:34:00;;;;;;;4.70;3.83;;;9.50;99.90;;;;;;5053396;28;20506;-79
2022/12/30 04:36:27;;;;;;;6.40;4.00;;;9.50;99.90;;;;;;5053132;28;20474;-79
2022/12/30 04:38:53;;;;;;;5.78;3.97;;;9.60;99.90;;;;;;5052885;28;20025;-79
2022/12/30 04:41:20;;;;;;;5.93;4.07;;;9.60;99.90;;;;;;5053261;28;20035;-79
2022/12/30 04:43:46;;;;;;;5.93;3.83;;;9.70;99.90;;;;;;5052826;28;20169;-79
2022/12/30 04:46:12;;;;;;;4.32;3.90;;;9.60;99.90;;;;;;5053207;28;20020;-79
2022/12/30 04:48:38;;;;;;;6.15;3.90;;;9.60;99.90;;;;;;5051748;28;20533;-79
2022/12/30 04:51:04;;;;;;;5.28;4.53;;;9.50;99.90;;;;;;5052745;28;20025;-79
2022/12/30 04:53:30;;;;;;;5.18;4.40;;;9.60;99.90;;;;;;5052884;28;20503;-79
2022/12/30 04:55:56;;;;;;;6.45;4.15;;;9.50;99.90;;;;;;5052912;28;20120;-79
2022/12/30 04:58:23;;;;;;;5.95;4.45;;;9.60;99.90;;;;;;5052545;28;20067;-79
2022/12/30 05:00:51;;;;;;;4.18;3.35;;;9.60;99.90;;;;;;5053136;28;20112;-79
2022/12/30 05:03:17;;;;;;;6.20;4.47;;;9.60;99.90;;;;;;5052717;28;20072;-79
2022/12/30 05:05:43;;;;;;;6.88;4.50;;;9.60;99.90;;;;;;5052565;28;20036;-79
2022/12/30 05:08:09;;;;;;;5.28;4.40;;;9.60;99.90;;;;;;5050517;28;20108;-79
2022/12/30 05:10:36;;;;;;;5.88;4.90;;;9.60;99.90;;;;;;5051188;28;20025;-79
2022/12/30 05:13:02;;;;;;;5.47;4.25;;;9.60;99.90;;;;;;5051044;28;20047;-79
2022/12/30 05:15:28;;;;;;;6.75;4.53;;;9.60;99.90;;;;;;5052629;28;20020;-79
2022/12/30 05:17:54;;;;;;;8.32;4.72;;;9.70;99.90;;;;;;5051176;28;20104;-79
2022/12/30 05:20:20;;;;;;;6.43;5.20;;;9.60;99.90;;;;;;5052348;28;20025;-79
2022/12/30 05:22:45;;;;;;;5.88;4.75;;;9.60;99.90;;;;;;5051126;28;20071;-79
2022/12/30 05:27:55;;;;;;;5.25;4.15;;;9.60;99.90;;;;;;5051849;28;20517;-79
2022/12/30 05:30:21;;;;;;;6.32;4.25;;;9.60;99.90;;;;;;5052176;28;20036;-79
2022/12/30 05:32:47;;;;;;;5.18;3.95;;;9.60;99.90;;;;;;5052560;28;20025;-79
2022/12/30 05:35:13;;;;;;;5.82;4.43;;;9.60;99.90;;;;;;5050713;28;20027;-79
2022/12/30 05:37:39;;;;;;;5.70;4.32;;;9.60;99.90;;;;;;5052029;28;20112;-79
2022/12/30 05:40:05;;;;;;;8.57;4.38;;;9.60;99.90;;;;;;5051914;28;20515;-79
2022/12/30 05:42:31;;;;;;;6.40;4.75;;;9.60;99.90;;;;;;5050465;28;20079;-79
2022/12/30 05:44:57;;;;;;;6.55;4.20;;;9.50;99.90;;;;;;5052441;28;20029;-79
2022/12/30 05:47:23;;;;;;;5.43;4.22;;;9.50;99.90;;;;;;5052366;28;20470;-79
2022/12/30 05:49:49;;;;;;;5.63;4.90;;;9.50;99.90;;;;;;5052116;28;20071;-79
2022/12/30 05:52:15;;;;;;;5.18;4.00;;;9.50;99.90;;;;;;5051870;28;20018;-79
2022/12/30 05:54:42;;;;;;;5.03;4.05;;;9.50;99.90;;;;;;5052149;28;20422;-79
2022/12/30 05:57:08;;;;;;;5.55;4.13;;;9.50;99.90;;;;;;5051745;28;20016;-79
2022/12/30 05:59:34;;;;;;;6.22;4.50;;;9.60;99.90;;;;;;5052177;28;20083;-79
2022/12/30 06:02:00;;;;;;;4.38;3.97;;;9.60;99.90;;;;;;5052225;28;20037;-79
2022/12/30 06:04:25;;;;;;;5.10;4.60;;;9.60;99.90;;;;;;5051899;28;20036;-79
2022/12/30 06:06:51;;;;;;;6.22;4.45;;;9.60;99.90;;;;;;5051659;28;20491;-79
2022/12/30 06:09:17;;;;;;;4.13;3.58;;;9.60;99.90;;;;;;5051697;28;20047;-79
2022/12/30 06:11:43;;;;;;;8.63;4.30;;;9.60;99.90;;;;;;5049918;28;20033;-79
2022/12/30 06:14:10;;;;;;;4.57;4.07;;;9.60;99.90;;;;;;5051966;28;20073;-79
2022/12/30 06:16:36;;;;;;;6.30;4.47;;;9.60;99.90;;;;;;5051929;28;20024;-79
2022/12/30 06:19:02;;;;;;;5.22;3.88;;;9.60;99.90;;;;;;5052084;28;20021;-79
2022/12/30 06:21:28;;;;;;;5.45;4.18;;;9.60;99.90;;;;;;5055683;28;20116;-79
2022/12/30 06:23:53;;;;;;;7.05;4.38;;;9.70;99.90;;;;;;5054246;28;20032;-79
2022/12/30 06:26:19;;;;;;;4.30;3.42;;;9.60;99.90;;;;;;5055317;28;20029;-79
2022/12/30 06:28:45;;;;;;;5.30;3.63;;;9.60;99.90;;;;;;5055326;28;20576;-79
2022/12/30 06:31:10;;;;;;;4.32;3.83;;;9.70;99.90;;;;;;5055471;28;20510;-79
2022/12/30 06:33:36;;;;;;;4.18;3.60;;;9.60;99.90;;;;;;5055919;28;20017;-79
2022/12/30 06:36:02;;;;;;;6.85;3.88;;;9.60;99.90;;;;;;5055377;28;20112;-79
2022/12/30 06:38:28;;;;;;;6.05;3.80;;;9.70;99.90;;;;;;5055451;28;20029;-79
2022/12/30 06:40:53;;;;;;;4.82;4.05;;;9.60;99.90;;;;;;5055511;28;20033;-79
2022/12/30 06:43:19;;;;;;;5.85;3.72;;;9.60;99.90;;;;;;5053531;28;20040;-79
2022/12/30 06:45:45;;;;;;;6.18;3.85;;;9.60;99.90;;;;;;5055632;28;20028;-79
2022/12/30 06:48:11;;;;;;;4.30;3.60;;;9.70;99.90;;;;;;5055641;28;20079;-79
2022/12/30 06:50:37;;;;;;;4.90;3.88;;;9.70;99.90;;;;;;5055086;28;20099;-79
2022/12/30 06:53:04;;;;;;;4.28;3.47;;;9.70;99.90;;;;;;5053922;28;20021;-79
2022/12/30 06:55:30;;;;;;;5.28;3.70;;;9.70;99.90;;;;;;5053584;28;20051;-79
2022/12/30 06:57:55;;;;;;;4.25;3.85;;;9.80;99.90;;;;;;5055056;28;20470;-79
2022/12/30 07:00:21;;;;;;;5.30;4.28;;;9.70;99.90;;;;;;5054945;28;20554;-79
2022/12/30 07:02:47;;;;;;;4.57;4.03;;;9.70;99.90;;;;;;5053664;28;20037;-79
2022/12/30 07:05:13;;;;;;;8.35;4.78;;;9.60;99.90;;;;;;5055116;28;20047;-79
2022/12/30 07:07:39;;;;;;;8.05;5.03;;;9.60;99.90;;;;;;5055337;28;20253;-79
2022/12/30 07:10:05;;;;;;;6.05;5.00;;;9.60;99.90;;;;;;5054833;28;20449;-79
2022/12/30 07:12:30;;;;;;;5.07;4.57;;;9.60;99.90;;;;;;5053263;28;20025;-79
2022/12/30 07:14:56;;;;;;;5.22;4.72;;;9.70;99.90;;;;;;5054969;28;20494;-79
2022/12/30 07:17:22;;;;;;;5.95;4.70;;;9.70;99.90;;;;;;5054905;28;20116;-79
2022/12/30 07:19:47;;;;;;;6.60;4.88;;;9.70;99.90;;;;;;5053398;28;20025;-79
2022/12/30 07:22:14;;;;;;;6.57;5.32;;;9.70;99.90;;;;;;5061302;28;20025;-79
2022/12/30 07:24:39;;;;;;;6.05;4.97;;;9.70;99.90;;;;;;5054702;28;20021;-79
2022/12/30 07:27:05;;;;;;;6.32;5.05;;;9.70;99.90;;;;;;5054692;28;20027;-79
2022/12/30 07:29:31;;;;;;;8.00;4.93;;;9.70;99.90;;;;;;5052685;28;20136;-79
2022/12/30 07:31:57;;;;;;;6.95;5.10;;;9.70;99.90;;;;;;5053915;28;20037;-79
2022/12/30 07:34:23;;;;;;;6.55;5.00;;;9.70;99.90;;;;;;5054506;28;20021;-79
2022/12/30 07:36:49;;;;;;;6.70;5.00;;;9.70;99.90;;;;;;5054493;28;20552;-79
2022/12/30 07:39:14;;;;;;;6.25;4.72;;;9.70;99.90;;;;;;5054124;28;20048;-79
2022/12/30 07:41:40;;;;;;;6.50;4.82;;;9.70;99.90;;;;;;5053576;28;20037;-79
2022/12/30 07:44:06;;;;;;;6.28;4.72;;;9.70;99.90;;;;;;5052907;28;20464;-79
2022/12/30 07:46:31;;;;;;;10.23;5.25;;;9.70;99.90;;;;;;5054298;28;20083;-79
2022/12/30 07:48:57;;;;;;;6.03;4.95;;;9.70;99.90;;;;;;5054189;28;20082;-79
2022/12/30 07:51:23;;;;;;;6.55;4.93;;;9.70;99.90;;;;;;5053958;28;20498;-79
2022/12/30 07:53:48;;;;;;;8.75;5.38;;;9.70;99.90;;;;;;5053751;28;20548;-79
2022/12/30 07:56:14;;;;;;;7.15;5.15;;;9.70;99.90;;;;;;5053977;28;20551;-79
2022/12/30 07:58:40;;;;;;;7.10;5.53;;;9.70;99.90;;;;;;5053978;28;20478;-79
2022/12/30 08:01:10;;;;;;;6.80;5.45;;;9.80;99.90;;;;;;5053991;28;20025;-79
2022/12/30 08:03:36;;;;;;;5.78;4.88;;;9.80;99.90;;;;;;5054241;28;20025;-79
2022/12/30 08:06:06;;;;;;;6.28;5.68;;;9.90;99.90;;;;;;5053491;28;20159;-79
2022/12/30 08:08:33;;;;;;;6.32;5.07;;;9.90;99.90;;;;;;5053599;28;20036;-79
2022/12/30 08:10:59;;;;;;;7.28;5.65;;;10.00;99.90;;;;;;5053826;28;20033;-79
2022/12/30 08:13:25;;;;;;;7.03;6.15;;;10.10;99.90;;;;;;5052120;28;20021;-79
2022/12/30 08:15:50;;;;;;;10.98;5.65;;;10.20;99.90;;;;;;5053782;28;20166;-79
2022/12/30 08:18:16;;;;;;;7.55;5.82;;;10.20;99.90;;;;;;5053731;28;20017;-79
2022/12/30 08:20:43;;;;;;;7.13;5.57;;;10.30;99.90;;;;;;5052175;28;20498;-79
2022/12/30 08:23:08;;;;;;;6.15;5.53;;;10.30;99.90;;;;;;5053050;28;20017;-79
2022/12/30 08:25:34;;;;;;;7.53;5.40;;;10.40;99.90;;;;;;5052163;28;20032;-79
2022/12/30 08:28:00;;;;;;;7.68;5.35;;;10.40;99.90;;;;;;5051882;28;20080;-79
2022/12/30 08:30:26;;;;;;;7.63;5.53;;;10.50;99.90;;;;;;5053242;28;20510;-79
2022/12/30 08:32:52;;;;;;;8.40;6.00;;;10.50;99.90;;;;;;5053650;28;20044;-79
2022/12/30 08:35:18;;;;;;;7.80;5.10;;;10.50;99.90;;;;;;5053277;28;20482;-79
2022/12/30 08:37:44;;;;;;;8.38;5.38;;;10.60;99.90;;;;;;5053102;28;20047;-79
2022/12/30 08:40:10;;;;;;;8.55;5.50;;;10.50;99.90;;;;;;5053188;28;20032;-79
2022/12/30 08:42:36;;;;;;;7.68;5.68;;;10.60;99.90;;;;;;5052837;28;20025;-79
2022/12/30 08:45:05;;;;;;;7.82;5.70;;;10.50;99.90;;;;;;5051661;28;20033;-79
2022/12/30 08:47:32;;;;;;;7.00;5.72;;;10.50;99.90;;;;;;5051678;28;20056;-80
2022/12/30 08:49:58;;;;;;;8.18;6.03;;;10.60;99.90;;;;;;5051352;28;20029;-79
2022/12/30 08:52:24;;;;;;;7.10;5.80;;;10.60;99.90;;;;;;5052848;28;20522;-79
2022/12/30 08:54:50;;;;;;;8.25;6.38;;;10.60;99.90;;;;;;5053168;28;20471;-79
2022/12/30 08:57:15;;;;;;;7.18;6.07;;;10.60;99.90;;;;;;5052841;28;20020;-79
2022/12/30 08:59:41;;;;;;;7.78;6.57;;;10.60;99.90;;;;;;5051447;28;20135;-79
2022/12/30 09:02:12;;;;;;;8.68;5.47;;;10.60;99.90;;;;;;5052911;28;20017;-80
2022/12/30 09:04:38;;;;;;;11.65;6.20;;;10.60;99.90;;;;;;5052710;28;20025;-79
2022/12/30 09:07:03;;;;;;;8.20;6.03;;;10.70;99.90;;;;;;5052570;28;20036;-79
2022/12/30 09:09:29;;;;;;;7.68;5.93;;;10.70;99.90;;;;;;5052760;28;20602;-79
2022/12/30 09:11:56;;;;;;;9.38;5.97;;;10.70;99.90;;;;;;5052364;28;20032;-80
2022/12/30 09:14:22;;;;;;;6.95;5.82;;;10.70;99.90;;;;;;5052576;28;20035;-79
2022/12/30 09:16:48;;;;;;;7.97;5.78;;;10.80;99.90;;;;;;5052761;28;20025;-79
2022/12/30 09:19:15;;;;;;;6.18;5.32;;;10.80;99.90;;;;;;5052315;28;20043;-79
2022/12/30 09:21:41;;;;;;;6.85;5.88;;;10.80;99.90;;;;;;5052173;28;20021;-79
2022/12/30 09:24:06;;;;;;;6.03;5.35;;;10.80;99.90;;;;;;5052833;28;20489;-79
2022/12/30 09:26:33;;;;;;;7.45;5.80;;;10.90;99.90;;;;;;5052196;28;20029;-79
2022/12/30 09:28:59;;;;;;;7.35;5.68;;;10.90;99.90;;;;;;5050956;28;20057;-79
2022/12/30 09:31:25;;;;;;;6.50;5.80;;;10.90;99.90;;;;;;5052177;28;20025;-79
2022/12/30 09:33:51;;;;;;;7.70;5.75;;;10.90;99.90;;;;;;5050729;28;20029;-79
2022/12/30 09:36:18;;;;;;;7.43;6.43;;;10.90;99.90;;;;;;5051850;28;20021;-79
2022/12/30 09:38:44;;;;;;;7.45;6.00;;;10.80;99.90;;;;;;5052230;28;20017;-79
2022/12/30 09:44:57;;;;;;;6.40;5.70;;;10.80;99.90;;;;;;5052574;28;20398;-79
2022/12/30 09:47:30;;;;;;;7.78;5.60;;;10.80;99.90;;;;;;5050618;28;20131;-79
2022/12/30 09:50:09;;;;;;;7.43;5.97;;;10.80;99.90;;;;;;5051988;28;20055;-79
2022/12/30 09:52:50;;;;;;;8.93;5.95;;;10.90;99.90;;;;;;5052131;28;20078;-79
2022/12/30 09:55:23;;;;;;;8.10;6.30;;;10.90;99.90;;;;;;5051856;28;20474;-80
2022/12/30 09:57:57;;;;;;;8.73;5.70;;;10.90;99.90;;;;;;5052196;28;20021;-79
2022/12/30 10:00:26;;;;;;;12.07;6.30;;;10.90;99.90;;;;;;5052166;28;20031;-79
2022/12/30 10:03:05;;;;;;;8.52;6.60;;;11.00;99.90;;;;;;5051722;28;20051;-79
2022/12/30 10:05:46;;;;;;;10.63;6.47;;;11.10;99.90;;;;;;5051899;28;20017;-79
2022/12/30 10:08:38;;;;;;;10.30;7.00;;;11.20;99.90;;;;;;5052206;28;20056;-79
2022/12/30 10:11:26;;;;;;;9.10;6.90;;;11.40;99.90;;;;;;5051990;28;20032;-79
2022/12/30 10:14:04;;;;;;;9.02;7.32;;;11.60;99.90;;;;;;5052091;28;20021;-79
2022/12/30 10:16:44;;;;;;;7.97;6.60;;;11.70;99.90;;;;;;5051616;28;20021;-80
2022/12/30 10:19:25;;;;;;;8.73;7.05;;;11.90;99.90;;;;;;5051758;28;20033;-79
2022/12/30 10:22:05;;;;;;;10.05;6.68;;;12.10;99.90;;;;;;5050092;28;20060;-79
2022/12/30 10:24:40;;;;;;;8.30;6.47;;;12.20;99.90;;;;;;5051981;28;20104;-79
2022/12/30 10:27:20;;;;;;;11.45;7.00;;;12.40;99.90;;;;;;5050307;28;20033;-79
2022/12/30 10:29:46;;;;;;;11.10;8.38;;;12.30;99.90;;;;;;5051629;28;20056;-80
2022/12/30 10:32:19;;;;;;;10.63;7.90;;;12.50;99.90;;;;;;5051482;28;20013;-79
2022/12/30 10:34:47;;;;;;;10.02;8.00;;;12.60;99.90;;;;;;5052070;28;20044;-79
2022/12/30 10:37:42;;;;;;;11.10;7.43;;;12.60;99.90;;;;;;5049890;28;20017;-79
2022/12/30 10:40:13;;;;;;;11.23;7.45;;;12.70;99.90;;;;;;5046970;28;20045;-79
2022/12/30 10:42:59;;;;;;;11.20;8.13;;;12.80;99.90;;;;;;5050077;28;20028;-79
2022/12/30 10:45:45;;;;;;;11.45;7.30;;;12.80;99.90;;;;;;5050477;28;20027;-79
2022/12/30 10:48:16;;;;;;;9.38;7.25;;;12.80;99.90;;;;;;5051296;28;20024;-79
2022/12/30 10:50:45;;;;;;;10.20;7.25;;;12.90;99.90;;;;;;5050120;28;20025;-79
2022/12/30 10:53:22;;;;;;;8.73;7.40;;;12.90;99.90;;;;;;5051636;28;20025;-79
2022/12/30 10:55:51;;;;;;;9.27;8.07;;;12.80;99.90;;;;;;5051641;28;20044;-79
2022/12/30 10:58:46;;;;;;;12.55;7.38;;;12.90;99.90;;;;;;5049978;28;20021;-80
2022/12/30 11:01:19;;;;;;;14.07;7.85;;;13.00;99.90;;;;;;5047590;28;20033;-79
2022/12/30 11:03:51;;;;;;;11.05;8.20;;;13.00;99.90;;;;;;5051370;28;20032;-79
2022/12/30 11:06:37;;;;;;;10.77;7.47;;;13.10;99.90;;;;;;5052967;28;20494;-79
2022/12/30 11:09:11;;;;;;;10.10;7.97;;;13.10;99.90;;;;;;5054821;28;20068;-79
2022/12/30 11:14:43;;;;;;;9.77;7.75;;;13.20;99.90;;;;;;5055293;28;20031;-79
2022/12/30 11:17:15;;;;;;;11.25;7.15;;;13.30;99.90;;;;;;5054629;28;20028;-79
2022/12/30 11:19:43;;;;;;;11.60;7.75;;;13.30;99.90;;;;;;5053463;28;20028;-79
2022/12/30 11:22:09;;;;;;;14.43;8.40;;;13.50;99.90;;;;;;5054474;28;20502;-80
2022/12/30 11:24:36;;;;;;;10.15;8.68;;;13.50;99.90;;;;;;5054893;28;20025;-79
2022/12/30 11:27:03;;;;;;;11.95;9.05;;;13.70;99.90;;;;;;5054613;28;20021;-79
2022/12/30 11:29:32;;;;;;;12.07;8.30;;;13.80;99.90;;;;;;5054139;28;20503;-79
2022/12/30 11:31:59;;;;;;;8.98;7.80;;;13.90;99.90;;;;;;5054538;28;20021;-79
2022/12/30 11:34:28;;;;;;;11.15;7.90;;;13.90;99.90;;;;;;5054344;28;20171;-80
2022/12/30 11:36:53;;;;;;;13.75;7.97;;;14.00;99.90;;;;;;5054325;28;20127;-79
2022/12/30 11:39:22;;;;;;;9.35;7.57;;;14.00;99.90;;;;;;5054248;28;20538;-79
2022/12/30 11:42:00;;;;;;;12.98;7.65;;;14.10;99.90;;;;;;5054193;28;20032;-79
2022/12/30 11:44:31;;;;;;;12.70;7.95;;;14.00;99.90;;;;;;5054356;28;20025;-80
2022/12/30 11:47:10;;;;;;;10.43;7.65;;;14.10;99.90;;;;;;5054339;28;20051;-79
2022/12/30 11:49:57;;;;;;;9.85;7.75;;;14.20;99.90;;;;;;5054238;28;20044;-79
2022/12/30 11:52:25;;;;;;;7.45;6.43;;;14.30;99.90;;;;;;5054016;28;20116;-80
2022/12/30 11:54:56;;;;;;;10.55;7.50;;;14.40;99.90;;;;;;5054478;28;20025;-80
2022/12/30 11:57:31;;;;;;;10.68;6.80;;;14.50;99.90;;;;;;5053982;28;20096;-79
2022/12/30 12:00:01;;;;;;;8.82;7.03;;;14.60;99.90;;;;;;5053767;28;20558;-80
2022/12/30 12:02:35;;;;;;;8.73;7.20;;;14.60;99.90;;;;;;5053787;28;20064;-79
2022/12/30 12:05:00;;;;;;;8.07;6.75;;;14.60;99.90;;;;;;5053892;28;20067;-79
2022/12/30 12:07:47;;;;;;;9.57;6.80;;;14.60;99.90;;;;;;5053669;28;20029;-79
2022/12/30 12:10:23;;;;;;;9.85;6.68;;;14.70;99.90;;;;;;5052596;28;20029;-79
2022/12/30 12:13:01;;;;;;;10.35;6.60;;;14.60;99.90;;;;;;5053798;28;20055;-79
2022/12/30 12:15:41;;;;;;;11.52;6.40;;;14.60;99.90;;;;;;5053981;28;20024;-79
2022/12/30 12:18:15;;;;;;;8.00;6.88;;;14.60;99.90;;;;;;5053411;28;20519;-79
2022/12/30 12:21:04;;;;;;;10.75;6.63;;;14.50;99.90;;;;;;5053192;28;20517;-79
2022/12/30 12:23:51;;;;;;;7.70;6.00;;;14.60;99.90;;;;;;5032317;28;20100;-79
2022/12/30 12:26:24;;;;;;;8.68;6.13;;;14.70;99.90;;;;;;5032400;28;20036;-79
2022/12/30 12:28:52;;;;;;;9.57;6.70;;;14.80;99.90;;;;;;5033438;28;20080;-79
2022/12/30 12:31:21;;;;;;;8.30;5.93;;;14.80;99.90;;;;;;5033513;28;20499;-79
2022/12/30 12:34:01;;;;;;;7.88;6.38;;;14.90;99.90;;;;;;5033710;28;20021;-79
2022/12/30 12:36:33;;;;;;;7.90;5.90;;;14.90;99.90;;;;;;5033008;28;20049;-79
2022/12/30 12:39:07;;;;;;;7.28;5.75;;;14.90;99.90;;;;;;5049437;28;20043;-79
2022/12/30 12:41:53;;;;;;;9.30;6.40;;;15.00;99.90;;;;;;5053246;28;20021;-79
2022/12/30 12:44:25;;;;;;;10.60;6.57;;;15.00;99.90;;;;;;5053112;28;20064;-79
2022/12/30 12:46:59;;;;;;;6.97;5.85;;;15.10;99.90;;;;;;5053328;28;20025;-79
2022/12/30 12:49:56;;;;;;;7.93;6.25;;;15.10;99.90;;;;;;5053204;28;20113;-79
2022/12/30 12:52:39;;;;;;;6.85;6.03;;;15.20;99.90;;;;;;5052977;28;20037;-79
2022/12/30 12:55:39;;;;;;;6.78;5.57;;;15.10;99.90;;;;;;5052891;28;20025;-79
2022/12/30 12:58:15;;;;;;;8.23;6.05;;;15.20;99.90;;;;;;5030140;28;20116;-79
2022/12/30 13:00:51;;;;;;;6.30;5.18;;;15.40;99.90;;;;;;5030651;28;20506;-79
2022/12/30 13:04:06;;;;;;;7.07;5.57;;;15.50;99.90;;;;;;5034412;28;20047;-79
2022/12/30 13:06:41;;;;;;;6.28;5.15;;;15.40;99.90;;;;;;4971279;28;20034;-79
2022/12/30 13:09:33;;;;;;;6.40;5.20;;;15.20;99.90;;;;;;4971590;28;20039;-79
2022/12/30 13:12:12;;;;;;;6.63;5.30;;;15.30;99.90;;;;;;4971103;28;20054;-79
2022/12/30 13:14:47;;;;;;;6.05;4.80;;;15.20;99.90;;;;;;4971603;28;20078;-79
2022/12/30 13:17:19;;;;;;;6.15;5.40;;;15.20;99.90;;;;;;4971437;28;20035;-79
2022/12/30 13:19:54;;;;;;;6.28;5.05;;;15.30;99.90;;;;;;4971668;28;20018;-79
2022/12/30 13:22:24;;;;;;;5.53;4.85;;;15.40;99.90;;;;;;4959112;28;20067;-79
2022/12/30 13:24:53;;;;;;;6.18;5.57;;;15.60;99.90;;;;;;4952183;28;20083;-79
2022/12/30 13:27:30;;;;;;;5.63;4.82;;;15.60;99.90;;;;;;4951787;28;20027;-79
2022/12/30 13:29:58;;;;;;;6.78;5.40;;;15.60;99.90;;;;;;4951388;28;20043;-79
2022/12/30 13:32:30;;;;;;;5.70;4.35;;;15.60;99.90;;;;;;4952054;28;20082;-79
2022/12/30 13:35:11;;;;;;;6.25;5.03;;;15.40;99.90;;;;;;4967618;28;20142;-79
2022/12/30 13:37:56;;;;;;;5.28;4.45;;;15.50;99.90;;;;;;4990496;28;20042;-79
2022/12/30 13:40:27;;;;;;;4.80;4.40;;;15.50;99.90;;;;;;4990414;28;20031;-79
2022/12/30 13:42:59;;;;;;;6.45;4.45;;;15.60;99.90;;;;;;5003681;28;20041;-79
2022/12/30 13:45:26;;;;;;;7.90;5.10;;;15.70;99.90;;;;;;5030922;28;20037;-79
2022/12/30 13:48:01;;;;;;;7.13;5.13;;;15.80;99.90;;;;;;5032334;28;20029;-79
2022/12/30 13:50:30;;;;;;;5.85;4.57;;;15.80;99.90;;;;;;5030644;28;20025;-79
2022/12/30 13:52:58;;;;;;;5.45;4.30;;;15.70;99.90;;;;;;5032347;28;20035;-79
2022/12/30 13:55:37;;;;;;;5.85;4.85;;;15.70;99.90;;;;;;5030762;28;20026;-79
2022/12/30 13:58:30;;;;;;;6.00;5.00;;;15.60;99.90;;;;;;5044052;28;20021;-79
2022/12/30 14:01:25;;;;;;;4.90;4.40;;;15.70;99.90;;;;;;5052274;28;20025;-79
2022/12/30 14:04:11;;;;;;;5.30;4.60;;;15.50;99.90;;;;;;5050562;28;20072;-79